createdAt,value
2018-10-16T00:02:25.663Z,15.76
2018-10-16T00:04:55.994Z,15.77
2018-10-16T00:07:26.139Z,15.67
2018-10-16T00:09:56.340Z,15.56
2018-10-16T00:12:26.642Z,15.47
2018-10-16T00:14:56.795Z,15.49
2018-10-16T00:17:26.961Z,15.37
2018-10-16T00:19:57.125Z,15.46
2018-10-16T00:22:27.311Z,15.62
2018-10-16T00:24:57.477Z,15.52
2018-10-16T00:27:27.827Z,15.36
2018-10-16T00:29:58.003Z,15.38
2018-10-16T00:32:28.498Z,15.26
2018-10-16T00:34:58.666Z,15.42
2018-10-16T00:37:29.220Z,15.59
2018-10-16T00:39:59.591Z,15.50
2018-10-16T00:42:29.804Z,15.35
2018-10-16T00:45:00.288Z,15.33
2018-10-16T00:47:30.629Z,15.37
2018-10-16T00:50:00.903Z,15.31
2018-10-16T00:52:31.095Z,15.28
2018-10-16T00:55:02.073Z,15.15
2018-10-16T00:57:32.227Z,15.22
2018-10-16T01:00:02.825Z,15.21
2018-10-16T01:02:33.079Z,15.23
2018-10-16T01:05:04.268Z,15.15
2018-10-16T01:07:34.579Z,15.08
2018-10-16T01:10:04.943Z,15.18
2018-10-16T01:12:35.074Z,15.21
2018-10-16T01:15:05.323Z,15.31
2018-10-16T01:17:35.537Z,15.33
2018-10-16T01:20:06.292Z,15.41
2018-10-16T01:22:36.455Z,15.55
2018-10-16T01:25:07.874Z,15.69
2018-10-16T01:27:38.475Z,15.56
2018-10-16T01:30:08.923Z,15.48
2018-10-16T01:32:39.401Z,15.50
2018-10-16T01:35:11.270Z,15.55
2018-10-16T01:37:41.808Z,15.68
2018-10-16T01:40:12.330Z,15.62
2018-10-16T01:42:42.619Z,15.57
2018-10-16T01:45:12.672Z,15.66
2018-10-16T01:47:42.971Z,15.80
2018-10-16T01:50:13.456Z,15.74
2018-10-16T01:52:43.755Z,15.64
2018-10-16T01:55:13.972Z,15.66
2018-10-16T01:57:44.264Z,15.82
2018-10-16T02:00:14.383Z,15.96
2018-10-16T02:02:44.758Z,15.89
2018-10-16T02:05:17.019Z,15.83
2018-10-16T02:07:47.491Z,15.81
2018-10-16T02:10:18.814Z,15.78
2018-10-16T02:12:49.059Z,15.67
2018-10-16T02:15:24.355Z,15.65
2018-10-16T02:17:54.623Z,15.72
2018-10-16T02:20:24.908Z,15.67
2018-10-16T02:22:55.244Z,15.55
2018-10-16T02:25:25.814Z,15.55
2018-10-16T02:27:56.186Z,15.55
2018-10-16T02:30:26.437Z,15.45
2018-10-16T02:32:56.703Z,15.60
2018-10-16T02:35:27.879Z,15.73
2018-10-16T02:37:58.074Z,15.70
2018-10-16T02:40:28.352Z,15.86
2018-10-16T02:42:58.514Z,15.91
2018-10-16T02:45:28.700Z,15.96
2018-10-16T02:47:58.838Z,15.90
2018-10-16T02:50:29.123Z,15.85
2018-10-16T02:52:59.679Z,15.94
2018-10-16T02:55:29.994Z,15.92
2018-10-16T02:58:00.709Z,15.83
2018-10-16T03:00:30.749Z,15.71
2018-10-16T03:03:01.464Z,15.95
2018-10-16T03:05:31.943Z,15.99
2018-10-16T03:08:02.943Z,16.02
2018-10-16T03:10:33.184Z,15.90
2018-10-16T03:13:03.704Z,15.94
2018-10-16T03:15:33.875Z,15.79
2018-10-16T03:18:04.018Z,15.76
2018-10-16T03:20:34.227Z,15.78
2018-10-16T03:23:04.481Z,15.84
2018-10-16T03:25:35.078Z,15.87
2018-10-16T03:28:05.279Z,15.96
2018-10-16T03:30:35.405Z,16.14
2018-10-16T03:33:05.732Z,16.17
2018-10-16T03:35:35.755Z,16.05
2018-10-16T03:38:05.983Z,15.75
2018-10-16T03:40:36.144Z,15.55
2018-10-16T03:43:06.474Z,15.47
2018-10-16T03:45:36.727Z,15.42
2018-10-16T03:48:07.286Z,15.55
2018-10-16T03:50:38.264Z,15.71
2018-10-16T03:53:08.419Z,15.63
2018-10-16T03:55:38.611Z,15.62
2018-10-16T03:58:08.810Z,15.67
2018-10-16T04:00:51.594Z,15.61
2018-10-16T04:03:21.788Z,15.65
2018-10-16T04:05:51.980Z,15.69
2018-10-16T04:08:22.079Z,15.63
2018-10-16T04:10:52.222Z,15.65
2018-10-16T04:13:22.611Z,15.82
2018-10-16T04:15:53.086Z,15.75
2018-10-16T04:18:23.290Z,15.76
2018-10-16T04:20:53.492Z,15.87
2018-10-16T04:23:23.711Z,15.78
2018-10-16T04:25:53.827Z,15.81
2018-10-16T04:28:23.885Z,15.71
2018-10-16T04:30:53.919Z,15.67
2018-10-16T04:33:24.187Z,15.73
2018-10-16T04:35:54.375Z,15.76
2018-10-16T04:38:24.698Z,15.75
2018-10-16T04:40:55.233Z,15.78
2018-10-16T04:43:25.355Z,15.66
2018-10-16T04:45:55.451Z,15.67
2018-10-16T04:48:25.741Z,15.59
2018-10-16T04:50:55.776Z,15.60
2018-10-16T04:53:26.162Z,15.59
2018-10-16T04:55:56.594Z,15.59
2018-10-16T04:58:27.126Z,15.70
2018-10-16T05:00:57.248Z,15.66
2018-10-16T05:03:27.448Z,15.84
2018-10-16T05:05:57.621Z,15.77
2018-10-16T05:08:27.791Z,15.83
2018-10-16T05:10:58.069Z,15.82
2018-10-16T05:13:28.155Z,15.91
2018-10-16T05:15:58.211Z,15.85
2018-10-16T05:18:28.509Z,15.85
2018-10-16T05:20:58.503Z,15.78
2018-10-16T05:23:29.439Z,15.75
2018-10-16T05:25:59.509Z,15.77
2018-10-16T05:28:29.890Z,15.96
2018-10-16T05:31:00.410Z,16.03
2018-10-16T05:33:30.586Z,16.13
2018-10-16T05:36:01.106Z,16.19
2018-10-16T05:38:31.178Z,16.21
2018-10-16T05:41:01.595Z,16.12
2018-10-16T05:43:31.627Z,16.05
2018-10-16T05:46:02.112Z,16.33
2018-10-16T05:48:32.378Z,16.24
2018-10-16T05:51:02.866Z,16.25
2018-10-16T05:53:34.832Z,16.13
2018-10-16T05:56:06.807Z,16.33
2018-10-16T05:58:38.237Z,16.39
2018-10-16T06:01:08.405Z,16.35
2018-10-16T06:03:39.930Z,16.27
2018-10-16T06:06:10.525Z,16.19
2018-10-16T06:08:41.814Z,16.23
2018-10-16T06:11:20.256Z,16.22
2018-10-16T06:13:50.400Z,16.20
2018-10-16T06:16:20.875Z,16.27
2018-10-16T06:18:51.423Z,16.43
2018-10-16T06:21:21.661Z,16.39
2018-10-16T06:23:51.746Z,16.33
2018-10-16T06:26:21.964Z,16.27
2018-10-16T06:28:52.448Z,16.45
2018-10-16T06:31:22.817Z,16.52
2018-10-16T06:33:53.384Z,16.69
2018-10-16T06:36:23.578Z,16.54
2018-10-16T06:38:53.922Z,16.54
2018-10-16T06:41:24.342Z,16.62
2018-10-16T06:43:54.501Z,16.52
2018-10-16T06:46:25.404Z,16.50
2018-10-16T06:48:55.829Z,16.58
2018-10-16T06:51:25.811Z,16.65
2018-10-16T06:53:56.175Z,16.67
2018-10-16T06:56:26.244Z,16.75
2018-10-16T06:58:57.489Z,16.91
2018-10-16T07:04:03.931Z,17.06
2018-10-16T07:06:34.487Z,17.11
2018-10-16T07:09:05.228Z,17.22
2018-10-16T07:11:37.255Z,17.34
2018-10-16T07:14:09.743Z,17.45
2018-10-16T07:16:39.890Z,17.53
2018-10-16T07:19:11.402Z,17.60
2018-10-16T07:21:42.217Z,17.71
2018-10-16T07:24:12.314Z,17.83
2018-10-16T07:26:42.557Z,17.89
2018-10-16T07:29:12.650Z,17.97
2018-10-16T07:31:42.660Z,18.19
2018-10-16T07:34:12.648Z,18.21
2018-10-16T07:36:42.808Z,18.25
2018-10-16T07:39:13.953Z,18.24
2018-10-16T07:41:43.964Z,18.24
2018-10-16T07:44:14.129Z,18.33
2018-10-16T07:46:44.105Z,18.27
2018-10-16T07:49:14.173Z,18.43
2018-10-16T07:51:44.366Z,18.39
2018-10-16T07:54:15.240Z,18.41
2018-10-16T07:56:45.297Z,18.45
2018-10-16T07:59:15.614Z,18.54
2018-10-16T08:01:45.674Z,18.56
2018-10-16T08:04:15.738Z,18.69
2018-10-16T08:06:51.909Z,18.77
2018-10-16T08:09:22.939Z,18.89
2018-10-16T08:11:53.381Z,19.05
2018-10-16T08:14:23.574Z,19.20
2018-10-16T08:16:53.748Z,19.32
2018-10-16T08:19:23.802Z,19.55
2018-10-16T08:21:53.906Z,19.73
2018-10-16T08:24:23.878Z,20.14
2018-10-16T08:26:53.935Z,20.25
2018-10-16T08:29:23.913Z,20.40
2018-10-16T08:31:53.998Z,20.57
2018-10-16T08:34:24.040Z,20.59
2018-10-16T08:36:54.175Z,20.52
2018-10-16T08:39:28.132Z,20.59
2018-10-16T08:44:17.197Z,20.61
2018-10-16T08:46:58.248Z,20.90
2018-10-16T08:49:40.079Z,21.20
2018-10-16T08:52:13.008Z,21.33
2018-10-16T08:54:43.277Z,21.48
2018-10-16T08:57:13.367Z,21.61
2018-10-16T08:59:43.347Z,21.64
2018-10-16T09:02:13.475Z,21.83
2018-10-16T09:04:43.669Z,21.63
2018-10-16T09:07:13.748Z,21.60
2018-10-16T09:09:43.716Z,21.69
2018-10-16T09:12:14.054Z,21.55
2018-10-16T09:14:44.407Z,21.56
2018-10-16T09:17:14.584Z,21.61
2018-10-16T09:19:44.802Z,21.65
2018-10-16T09:22:14.778Z,21.52
2018-10-16T09:24:44.834Z,21.26
2018-10-16T09:27:14.925Z,21.26
2018-10-16T09:29:45.536Z,21.11
2018-10-16T09:32:15.849Z,20.99
2018-10-16T09:34:45.977Z,21.01
2018-10-16T09:37:16.712Z,20.90
2018-10-16T09:39:46.886Z,20.78
2018-10-16T09:45:20.126Z,20.84
2018-10-16T09:47:50.390Z,20.90
2018-10-16T09:50:22.468Z,20.97
2018-10-16T09:52:52.645Z,21.09
2018-10-16T09:55:22.920Z,21.19
2018-10-16T09:57:53.341Z,21.44
2018-10-16T10:00:29.615Z,21.52
2018-10-16T10:03:00.043Z,21.78
2018-10-16T10:05:30.260Z,21.92
2018-10-16T10:08:00.828Z,22.13
2018-10-16T10:10:30.993Z,22.54
2018-10-16T10:13:01.258Z,22.55
2018-10-16T10:15:31.380Z,22.51
2018-10-16T10:18:01.706Z,22.54
2018-10-16T10:20:31.910Z,22.49
2018-10-16T10:23:02.641Z,22.86
2018-10-16T10:25:44.517Z,22.98
2018-10-16T10:28:14.689Z,23.12
2018-10-16T10:30:44.731Z,22.65
2018-10-16T10:33:14.852Z,22.67
2018-10-16T10:35:44.827Z,22.47
2018-10-16T10:38:14.869Z,22.53
2018-10-16T10:40:45.972Z,22.43
2018-10-16T10:43:16.470Z,22.47
2018-10-16T10:45:46.525Z,22.42
2018-10-16T10:48:16.685Z,22.41
2018-10-16T10:50:46.791Z,22.41
2018-10-16T10:53:16.723Z,22.20
2018-10-16T10:55:46.745Z,22.07
2018-10-16T10:58:16.862Z,22.00
2018-10-16T11:00:46.970Z,21.87
2018-10-16T11:03:17.080Z,21.68
2018-10-16T11:05:47.176Z,21.53
2018-10-16T11:08:17.561Z,21.55
2018-10-16T11:10:47.811Z,21.46
2018-10-16T11:13:17.910Z,21.48
2018-10-16T11:15:48.023Z,21.29
2018-10-16T11:18:18.136Z,21.09
2018-10-16T11:20:48.216Z,21.11
2018-10-16T11:23:18.313Z,21.02
2018-10-16T11:25:48.540Z,21.13
2018-10-16T11:28:18.629Z,21.04
2018-10-16T11:30:48.929Z,21.10
2018-10-16T11:33:19.012Z,21.30
2018-10-16T11:35:49.120Z,21.28
2018-10-16T11:38:19.337Z,21.15
2018-10-16T11:40:49.497Z,21.04
2018-10-16T11:43:19.574Z,20.83
2018-10-16T11:45:49.748Z,20.62
2018-10-16T11:48:20.217Z,20.57
2018-10-16T11:50:50.296Z,20.56
2018-10-16T11:53:20.444Z,20.64
2018-10-16T11:55:50.618Z,20.97
2018-10-16T11:58:20.596Z,21.18
2018-10-16T12:00:50.875Z,20.90
2018-10-16T12:03:21.045Z,20.92
2018-10-16T12:05:51.166Z,20.97
2018-10-16T12:08:21.259Z,21.00
2018-10-16T12:10:51.403Z,21.05
2018-10-16T12:13:21.428Z,21.14
2018-10-16T12:15:51.395Z,21.20
2018-10-16T12:18:25.533Z,21.20
2018-10-16T12:21:00.761Z,21.24
2018-10-16T12:23:31.162Z,21.17
2018-10-16T12:26:01.898Z,21.20
2018-10-16T12:31:29.172Z,21.17
2018-10-16T12:37:09.484Z,21.21
2018-10-16T12:39:40.480Z,21.24
2018-10-16T12:42:10.704Z,21.25
2018-10-16T12:44:49.192Z,21.28
2018-10-16T12:47:19.273Z,21.37
2018-10-16T12:49:49.561Z,21.39
2018-10-16T12:52:19.647Z,21.44
2018-10-16T12:54:49.814Z,21.48
2018-10-16T12:57:19.861Z,21.51
2018-10-16T12:59:49.920Z,21.63
2018-10-16T13:02:20.029Z,21.61
2018-10-16T13:04:50.101Z,21.65
2018-10-16T13:07:29.217Z,21.66
2018-10-16T13:09:59.357Z,21.72
2018-10-16T13:12:40.341Z,21.81
2018-10-16T13:15:11.882Z,21.70
2018-10-16T13:17:44.572Z,21.66
2018-10-16T13:20:17.788Z,21.69
2018-10-16T13:22:49.480Z,21.83
2018-10-16T13:25:19.947Z,21.92
2018-10-16T13:27:51.031Z,21.84
2018-10-16T13:30:41.417Z,21.66
2018-10-16T13:33:11.847Z,21.55
2018-10-16T13:35:41.838Z,21.55
2018-10-16T13:38:12.473Z,21.54
2018-10-16T13:40:42.457Z,21.50
2018-10-16T13:43:12.313Z,21.25
2018-10-16T13:45:42.500Z,21.18
2018-10-16T13:48:12.534Z,21.14
2018-10-16T13:50:42.624Z,21.04
2018-10-16T13:53:12.825Z,21.01
2018-10-16T13:55:42.849Z,20.90
2018-10-16T13:58:13.104Z,20.73
2018-10-16T14:00:44.260Z,20.70
2018-10-16T14:03:16.304Z,20.62
2018-10-16T14:05:46.293Z,20.47
2018-10-16T14:08:16.409Z,20.35
2018-10-16T14:10:46.454Z,20.26
2018-10-16T14:13:16.515Z,20.19
2018-10-16T14:15:46.388Z,20.18
2018-10-16T14:18:16.439Z,20.14
2018-10-16T14:20:46.556Z,20.13
2018-10-16T14:23:16.732Z,20.06
2018-10-16T14:25:47.021Z,19.90
2018-10-16T14:28:19.249Z,19.73
2018-10-16T14:30:50.010Z,19.41
2018-10-16T14:33:19.923Z,19.22
2018-10-16T14:35:50.893Z,18.96
2018-10-16T14:38:35.769Z,18.83
2018-10-16T14:41:19.006Z,18.78
2018-10-16T14:44:10.788Z,18.57
2018-10-16T14:46:41.765Z,18.43
2018-10-16T14:49:15.931Z,18.35
2018-10-16T14:51:53.866Z,18.30
2018-10-16T14:54:47.434Z,18.30
2018-10-16T14:57:17.760Z,18.32
2018-10-16T14:59:47.717Z,18.37
2018-10-16T15:02:17.940Z,18.26
2018-10-16T15:04:48.200Z,18.32
2018-10-16T15:07:18.400Z,18.33
2018-10-16T15:09:48.572Z,18.23
2018-10-16T15:12:20.448Z,18.17
2018-10-16T15:14:50.643Z,18.12
2018-10-16T15:17:20.812Z,18.07
2018-10-16T15:19:50.918Z,17.94
2018-10-16T15:22:21.379Z,17.90
2018-10-16T15:24:51.340Z,17.89
2018-10-16T15:27:21.817Z,17.92
2018-10-16T15:29:52.482Z,18.09
2018-10-16T15:32:22.706Z,18.28
2018-10-16T15:34:52.622Z,18.07
2018-10-16T15:37:22.859Z,18.05
2018-10-16T15:39:52.995Z,17.94
2018-10-16T15:42:23.511Z,17.81
2018-10-16T15:44:54.260Z,18.05
2018-10-16T15:47:24.372Z,17.97
2018-10-16T15:49:54.552Z,17.79
2018-10-16T15:52:24.626Z,17.67
2018-10-16T15:54:54.778Z,17.63
2018-10-16T15:57:24.935Z,17.59
2018-10-16T15:59:55.158Z,17.57
2018-10-16T16:02:25.745Z,17.50
2018-10-16T16:04:56.209Z,17.52
2018-10-16T16:07:26.476Z,17.49
2018-10-16T16:09:56.587Z,17.53
2018-10-16T16:12:26.849Z,17.61
2018-10-16T16:14:57.518Z,17.64
2018-10-16T16:17:27.659Z,17.67
2018-10-16T16:19:57.721Z,17.65
2018-10-16T16:22:27.917Z,17.61
2018-10-16T16:24:58.096Z,17.70
2018-10-16T16:27:38.622Z,17.65
2018-10-16T16:30:47.081Z,17.59
2018-10-16T16:33:35.648Z,17.53
2018-10-16T16:36:21.764Z,17.48
2018-10-16T16:39:13.042Z,17.42
2018-10-16T16:41:43.938Z,17.45
2018-10-16T16:44:14.115Z,17.47
2018-10-16T16:46:44.261Z,17.54
2018-10-16T16:49:14.330Z,17.46
2018-10-16T16:51:44.485Z,17.46
2018-10-16T16:54:15.921Z,17.66
2018-10-16T16:56:45.941Z,17.53
2018-10-16T16:59:16.142Z,17.57
2018-10-16T17:01:46.578Z,17.60
2018-10-16T17:04:16.824Z,17.59
2018-10-16T17:06:47.894Z,17.60
2018-10-16T17:09:17.977Z,17.61
2018-10-16T17:11:48.121Z,17.62
2018-10-16T17:14:18.347Z,17.63
2018-10-16T17:16:48.529Z,17.65
2018-10-16T17:19:18.625Z,17.67
2018-10-16T17:21:48.877Z,17.69
2018-10-16T17:24:19.016Z,17.70
2018-10-16T17:26:49.524Z,17.70
2018-10-16T17:29:19.577Z,17.66
2018-10-16T17:31:49.583Z,17.59
2018-10-16T17:34:19.757Z,17.59
2018-10-16T17:36:50.124Z,17.52
2018-10-16T17:39:20.522Z,17.40
2018-10-16T17:41:50.619Z,17.26
2018-10-16T17:44:20.892Z,17.20
2018-10-16T17:46:51.026Z,17.18
2018-10-16T17:49:21.134Z,17.15
2018-10-16T17:51:51.206Z,17.19
2018-10-16T17:54:21.715Z,17.25
2018-10-16T17:56:52.159Z,17.36
2018-10-16T17:59:23.585Z,17.38
2018-10-16T18:01:54.309Z,17.38
2018-10-16T18:04:24.672Z,17.36
2018-10-16T18:06:54.699Z,17.32
2018-10-16T18:09:25.315Z,17.29
2018-10-16T18:11:55.779Z,17.27
2018-10-16T18:14:26.138Z,17.21
2018-10-16T18:16:56.607Z,17.32
2018-10-16T18:19:27.860Z,17.25
2018-10-16T18:22:01.874Z,17.40
2018-10-16T18:24:32.401Z,17.70
2018-10-16T18:27:03.313Z,17.65
2018-10-16T18:29:33.531Z,17.53
2018-10-16T18:32:04.317Z,17.43
2018-10-16T18:34:38.614Z,17.40
2018-10-16T18:37:19.518Z,17.40
2018-10-16T18:40:00.324Z,17.44
2018-10-16T18:42:39.685Z,17.42
2018-10-16T18:45:28.953Z,17.43
2018-10-16T18:48:01.058Z,17.37
2018-10-16T18:50:31.508Z,17.63
2018-10-16T18:53:02.144Z,17.60
2018-10-16T18:55:32.597Z,17.49
2018-10-16T18:58:03.547Z,17.41
2018-10-16T19:00:37.524Z,17.39
2018-10-16T19:03:08.510Z,17.38
2018-10-16T19:05:38.604Z,17.36
2018-10-16T19:08:08.673Z,17.34
2018-10-16T19:10:38.879Z,17.37
2018-10-16T19:13:08.956Z,17.32
2018-10-16T19:15:40.017Z,17.31
2018-10-16T19:18:09.991Z,17.27
2018-10-16T19:20:40.252Z,17.23
2018-10-16T19:23:11.439Z,17.19
2018-10-16T19:25:41.551Z,17.18
2018-10-16T19:28:11.751Z,17.15
2018-10-16T19:30:42.747Z,17.12
2018-10-16T19:33:13.218Z,17.13
2018-10-16T19:35:43.409Z,17.14
2018-10-16T19:38:14.567Z,17.14
2018-10-16T19:40:45.041Z,17.17
2018-10-16T19:43:15.408Z,17.14
2018-10-16T19:45:45.803Z,17.18
2018-10-16T19:48:16.371Z,17.16
2018-10-16T19:50:46.616Z,17.13
2018-10-16T19:53:18.979Z,17.11
2018-10-16T19:55:49.396Z,17.09
2018-10-16T20:01:24.054Z,17.09
2018-10-16T20:07:03.591Z,17.19
2018-10-16T20:09:33.707Z,17.36
2018-10-16T20:12:04.271Z,17.26
2018-10-16T20:14:34.643Z,16.97
2018-10-16T20:17:04.941Z,16.76
2018-10-16T20:22:31.836Z,16.52
2018-10-16T20:25:03.004Z,16.63
2018-10-16T20:27:33.173Z,16.54
2018-10-16T20:30:04.338Z,16.46
2018-10-16T20:32:36.618Z,16.32
2018-10-16T20:35:07.134Z,16.25
2018-10-16T20:37:39.007Z,16.36
2018-10-16T20:40:23.868Z,16.33
2018-10-16T20:46:10.386Z,16.34
2018-10-16T20:48:53.141Z,16.35
2018-10-16T20:51:23.541Z,16.41
2018-10-16T20:53:53.740Z,16.43
2018-10-16T20:56:23.813Z,16.37
2018-10-16T20:58:54.345Z,16.33
2018-10-16T21:01:24.773Z,16.30
2018-10-16T21:03:57.858Z,16.26
2018-10-16T21:06:35.293Z,16.31
2018-10-16T21:09:06.772Z,16.30
2018-10-16T21:11:38.688Z,16.24
2018-10-16T21:14:09.103Z,16.23
2018-10-16T21:16:39.509Z,16.18
2018-10-16T21:19:09.767Z,16.15
2018-10-16T21:21:40.125Z,16.13
2018-10-16T21:24:10.316Z,16.10
2018-10-16T21:26:40.521Z,16.05
2018-10-16T21:29:10.818Z,16.15
2018-10-16T21:31:40.970Z,16.00
2018-10-16T21:34:11.156Z,15.90
2018-10-16T21:36:41.215Z,15.88
2018-10-16T21:39:11.390Z,15.83
2018-10-16T21:41:41.488Z,15.80
2018-10-16T21:44:11.568Z,15.83
2018-10-16T21:46:41.860Z,16.19
2018-10-16T21:49:12.027Z,16.23
2018-10-16T21:51:42.304Z,16.08
2018-10-16T21:54:13.741Z,16.04
2018-10-16T21:56:44.004Z,16.14
2018-10-16T21:59:14.428Z,16.14
2018-10-16T22:01:49.563Z,16.11
2018-10-16T22:04:19.922Z,16.29
2018-10-16T22:06:49.892Z,16.29
2018-10-16T22:09:19.953Z,16.15
2018-10-16T22:11:50.100Z,16.13
2018-10-16T22:14:20.416Z,16.04
2018-10-16T22:16:50.396Z,15.98
2018-10-16T22:19:20.841Z,16.00
2018-10-16T22:21:50.956Z,16.11
2018-10-16T22:24:21.078Z,15.93
2018-10-16T22:26:51.243Z,16.07
2018-10-16T22:29:21.359Z,16.06
2018-10-16T22:31:51.513Z,15.96
2018-10-16T22:34:21.673Z,15.80
2018-10-16T22:36:52.974Z,16.11
2018-10-16T22:39:23.145Z,15.86
2018-10-16T22:41:53.239Z,15.70
2018-10-16T22:44:23.351Z,15.69
2018-10-16T22:46:54.824Z,15.67
2018-10-16T22:49:25.072Z,15.61
2018-10-16T22:52:14.524Z,15.81
2018-10-16T22:55:27.224Z,15.65
2018-10-16T22:57:57.365Z,15.53
2018-10-16T23:00:27.731Z,15.38
2018-10-16T23:02:57.742Z,15.37
2018-10-16T23:05:27.992Z,15.55
2018-10-16T23:07:58.013Z,15.70
2018-10-16T23:10:28.620Z,15.70
2018-10-16T23:13:08.461Z,15.58
2018-10-16T23:15:38.424Z,15.51
2018-10-16T23:18:08.872Z,15.59
2018-10-16T23:20:39.160Z,15.65
2018-10-16T23:23:09.442Z,15.61
2018-10-16T23:25:39.519Z,15.71
2018-10-16T23:28:10.025Z,15.66
2018-10-16T23:30:40.325Z,15.63
2018-10-16T23:33:10.422Z,15.55
2018-10-16T23:35:40.521Z,15.53
2018-10-16T23:38:10.811Z,15.48
2018-10-16T23:40:41.621Z,15.52
2018-10-16T23:43:12.646Z,15.56
2018-10-16T23:45:42.951Z,15.66
2018-10-16T23:48:12.953Z,15.78
2018-10-16T23:50:43.124Z,15.87
2018-10-16T23:53:15.141Z,15.78
2018-10-16T23:55:50.017Z,15.73
2018-10-16T23:58:20.093Z,15.72
